Time;durP1;ratioP1;P1;durP2;ratioP2;P2;SDS_P1;SDS_P2;PMS_P1;PMS_P2;Temp;Humidity;BMP_temperature;BMP_pressure;BME280_temperature;BME280_humidity;BME280_pressure;Samples;Min_cycle;Max_cycle;Signal;HPM_P1;HPM_P2
2021/04/11 00:01:38;;;;;;;2.13;1.88;;;8.40;99.90;;;;;;5046227;28;20092;-74
2021/04/11 00:04:04;;;;;;;4.00;2.17;;;8.40;99.90;;;;;;5033525;28;20078;-74
2021/04/11 00:06:30;;;;;;;1.75;1.60;;;8.20;99.90;;;;;;5038820;28;20081;-73
2021/04/11 00:08:55;;;;;;;2.58;2.30;;;8.10;99.90;;;;;;5052755;28;20443;-74
2021/04/11 00:11:22;;;;;;;2.65;2.00;;;7.90;99.90;;;;;;5038427;28;20555;-75
2021/04/11 00:13:50;;;;;;;3.42;2.25;;;7.90;99.90;;;;;;5033920;28;20086;-74
2021/04/11 00:16:16;;;;;;;3.20;2.20;;;8.00;99.90;;;;;;5045175;28;20114;-73
2021/04/11 00:18:41;;;;;;;2.53;1.70;;;8.20;99.90;;;;;;5039175;28;20077;-74
2021/04/11 00:21:07;;;;;;;4.32;2.13;;;8.20;99.90;;;;;;5033570;28;20800;-74
2021/04/11 00:23:33;;;;;;;2.67;1.92;;;8.20;99.90;;;;;;5033803;28;20519;-74
2021/04/11 00:25:59;;;;;;;1.98;1.77;;;8.40;99.90;;;;;;5038069;28;20559;-74
2021/04/11 00:28:25;;;;;;;3.50;2.17;;;8.30;99.90;;;;;;5047533;28;20112;-74
2021/04/11 00:30:51;;;;;;;2.97;2.00;;;8.30;99.90;;;;;;5037363;28;20105;-73
2021/04/11 00:33:38;;;;;;;2.42;1.80;;;8.10;99.90;;;;;;5041353;28;20093;-74
2021/04/11 00:36:11;;;;;;;2.45;1.70;;;8.20;99.90;;;;;;5036380;28;20161;-74
2021/04/11 00:38:37;;;;;;;5.55;2.10;;;8.20;99.90;;;;;;5043857;28;20070;-74
2021/04/11 00:41:17;;;;;;;3.13;2.35;;;8.20;99.90;;;;;;5033796;28;20082;-75
2021/04/11 00:43:44;;;;;;;2.28;2.00;;;8.20;99.90;;;;;;5037941;28;20080;-74
2021/04/11 00:46:43;;;;;;;2.22;2.03;;;8.10;99.90;;;;;;5031987;28;20089;-73
2021/04/11 00:49:31;;;;;;;3.45;1.88;;;8.00;99.90;;;;;;5036220;28;20073;-73
2021/04/11 00:51:57;;;;;;;2.88;1.88;;;8.00;99.90;;;;;;5028546;28;20101;-74
2021/04/11 00:54:23;;;;;;;5.60;2.95;;;7.90;99.90;;;;;;5032498;28;20094;-74
2021/04/11 00:56:49;;;;;;;2.97;2.20;;;7.80;99.90;;;;;;5039987;28;20085;-75
2021/04/11 00:59:15;;;;;;;3.30;2.10;;;7.80;99.90;;;;;;5040767;28;20763;-73
2021/04/11 01:01:41;;;;;;;4.07;2.17;;;7.80;99.90;;;;;;5051076;28;20164;-74
2021/04/11 01:04:10;;;;;;;3.30;2.00;;;7.80;99.90;;;;;;5049849;28;21603;-75
2021/04/11 01:06:43;;;;;;;2.78;2.13;;;8.00;99.90;;;;;;5047724;28;20597;-74
2021/04/11 01:09:14;;;;;;;5.95;2.25;;;8.00;99.90;;;;;;5037136;28;20102;-73
2021/04/11 01:11:40;;;;;;;3.90;1.92;;;8.00;99.90;;;;;;5032513;28;20166;-74
2021/04/11 01:14:08;;;;;;;2.63;2.35;;;7.90;99.90;;;;;;5025754;28;20094;-75
2021/04/11 01:16:35;;;;;;;4.15;2.13;;;7.80;99.90;;;;;;5033882;28;20074;-74
2021/04/11 01:19:01;;;;;;;3.10;2.25;;;7.80;99.90;;;;;;5033911;28;20086;-74
2021/04/11 01:21:41;;;;;;;1.90;1.70;;;7.60;99.90;;;;;;5034741;28;20098;-74
2021/04/11 01:24:16;;;;;;;2.15;1.70;;;7.50;99.90;;;;;;5038243;28;20082;-74
2021/04/11 01:26:43;;;;;;;;;;;7.50;99.90;;;;;;5047072;28;20077;-74
2021/04/11 01:29:10;;;;;;;2.15;1.77;;;7.70;99.90;;;;;;5050625;28;19957;-73
2021/04/11 01:31:36;;;;;;;4.47;2.03;;;7.80;99.90;;;;;;5040845;28;20086;-73
2021/04/11 01:34:05;;;;;;;2.42;2.08;;;7.90;99.90;;;;;;5032808;28;20085;-74
2021/04/11 01:36:34;;;;;;;2.85;1.88;;;7.70;99.90;;;;;;5018628;28;20109;-74
2021/04/11 01:39:02;;;;;;;3.65;2.13;;;7.70;99.90;;;;;;5048436;28;20073;-74
2021/04/11 01:41:36;;;;;;;6.63;2.20;;;7.80;99.90;;;;;;5040374;28;20086;-76
2021/04/11 01:44:03;;;;;;;4.55;2.10;;;7.90;99.90;;;;;;5033140;28;20090;-75
2021/04/11 01:46:29;;;;;;;2.47;1.90;;;7.90;99.90;;;;;;5031993;28;20077;-74
2021/04/11 01:48:55;;;;;;;2.95;2.30;;;7.70;99.90;;;;;;5047852;28;20089;-74
2021/04/11 01:51:27;;;;;;;2.47;1.70;;;7.40;99.90;;;;;;5039584;28;20563;-75
2021/04/11 01:53:53;;;;;;;5.20;2.35;;;7.40;99.90;;;;;;5042604;28;20547;-75
2021/04/11 01:56:19;;;;;;;2.88;1.83;;;7.60;99.90;;;;;;5038068;28;20077;-74
2021/04/11 01:58:45;;;;;;;2.55;1.85;;;7.80;99.90;;;;;;5036254;28;20144;-74
2021/04/11 02:01:26;;;;;;;4.07;2.22;;;7.60;99.90;;;;;;5032004;28;20098;-76
2021/04/11 02:03:54;;;;;;;3.03;2.10;;;7.30;99.90;;;;;;5035803;28;20089;-74
2021/04/11 02:06:20;;;;;;;2.33;2.13;;;7.20;99.90;;;;;;5034762;28;20092;-75
2021/04/11 02:08:50;;;;;;;2.70;2.10;;;7.10;99.90;;;;;;5041456;28;20590;-75
2021/04/11 02:11:15;;;;;;;2.03;1.80;;;7.10;99.90;;;;;;5030763;28;20124;-74
2021/04/11 02:13:42;;;;;;;4.20;1.83;;;7.20;99.90;;;;;;5047694;28;20552;-77
2021/04/11 02:16:10;;;;;;;2.72;2.15;;;7.10;99.90;;;;;;5047875;28;20439;-75
2021/04/11 02:18:36;;;;;;;3.10;2.15;;;7.10;99.90;;;;;;5032195;28;20073;-74
2021/04/11 02:21:06;;;;;;;3.88;2.47;;;7.20;99.90;;;;;;5032180;28;20152;-74
2021/04/11 02:23:33;;;;;;;2.95;2.10;;;7.30;99.90;;;;;;5037910;28;20596;-74
2021/04/11 02:25:58;;;;;;;3.22;1.90;;;7.40;99.90;;;;;;5036529;28;20077;-74
2021/04/11 02:28:30;;;;;;;3.22;1.90;;;7.30;99.90;;;;;;5038897;28;20127;-73
2021/04/11 02:31:16;;;;;;;3.00;2.05;;;7.20;99.90;;;;;;5039452;28;20098;-73
2021/04/11 02:34:03;;;;;;;3.03;2.20;;;7.40;99.90;;;;;;5030386;28;20085;-75
2021/04/11 02:36:40;;;;;;;2.50;1.92;;;7.50;99.90;;;;;;5039911;28;20097;-74
2021/04/11 02:39:11;;;;;;;3.45;2.40;;;7.40;99.90;;;;;;5021243;28;20128;-73
2021/04/11 02:41:38;;;;;;;4.25;1.75;;;7.40;99.90;;;;;;5044052;28;20094;-74
2021/04/11 02:44:04;;;;;;;3.40;1.80;;;7.10;99.90;;;;;;5049421;28;20546;-75
2021/04/11 02:46:33;;;;;;;2.80;1.73;;;7.20;99.90;;;;;;5037266;28;20082;-74
2021/04/11 02:48:59;;;;;;;4.18;1.73;;;7.10;99.90;;;;;;5036545;28;20143;-74
2021/04/11 02:51:27;;;;;;;2.45;1.83;;;7.10;99.90;;;;;;5037416;28;20459;-74
2021/04/11 02:53:56;;;;;;;5.13;2.08;;;7.20;99.90;;;;;;5034601;28;20089;-74
2021/04/11 02:56:21;;;;;;;2.00;1.70;;;7.40;99.90;;;;;;5038238;28;20095;-75
2021/04/11 02:58:47;;;;;;;3.08;2.78;;;7.50;99.90;;;;;;5030411;28;20583;-75
2021/04/11 03:01:18;;;;;;;3.08;2.28;;;7.60;99.90;;;;;;5023023;28;20082;-75
2021/04/11 03:03:43;;;;;;;2.97;2.40;;;7.70;99.90;;;;;;5041645;28;20132;-77
2021/04/11 03:06:15;;;;;;;2.83;1.75;;;7.60;99.90;;;;;;5030061;28;20090;-75
2021/04/11 03:08:43;;;;;;;2.05;1.80;;;7.50;99.90;;;;;;5037213;28;20085;-74
2021/04/11 03:11:20;;;;;;;2.85;1.73;;;7.40;99.90;;;;;;5046517;28;20560;-74
2021/04/11 03:13:47;;;;;;;2.90;1.58;;;7.30;99.90;;;;;;5037861;28;20169;-74
2021/04/11 03:16:13;;;;;;;4.50;2.63;;;7.50;99.90;;;;;;5043142;28;20062;-74
2021/04/11 03:18:41;;;;;;;2.53;2.03;;;7.50;99.90;;;;;;5045968;28;20074;-73
2021/04/11 03:21:07;;;;;;;3.53;2.17;;;7.40;99.90;;;;;;5043911;28;20181;-74
2021/04/11 03:23:33;;;;;;;2.50;2.17;;;7.60;99.90;;;;;;5020365;28;20567;-74
2021/04/11 03:26:17;;;;;;;3.10;1.98;;;7.60;99.90;;;;;;5030787;28;20124;-73
2021/04/11 03:28:56;;;;;;;2.35;1.85;;;7.90;99.90;;;;;;5030797;28;20078;-74
2021/04/11 03:31:31;;;;;;;3.60;2.35;;;7.70;99.90;;;;;;5038096;28;20102;-74
2021/04/11 03:33:59;;;;;;;4.38;2.10;;;7.70;99.90;;;;;;5034316;28;20088;-76
2021/04/11 03:36:26;;;;;;;5.18;1.90;;;7.80;99.90;;;;;;5043626;28;20532;-74
2021/04/11 03:38:53;;;;;;;2.67;2.10;;;7.50;99.90;;;;;;5043001;28;20066;-73
2021/04/11 03:41:19;;;;;;;2.58;2.10;;;7.30;99.90;;;;;;5040464;28;20597;-74
2021/04/11 03:43:54;;;;;;;2.17;1.80;;;7.40;99.90;;;;;;5043276;28;20086;-74
2021/04/11 03:46:30;;;;;;;2.85;1.88;;;7.20;99.90;;;;;;5035617;28;20105;-73
2021/04/11 03:49:25;;;;;;;3.05;1.70;;;7.20;99.90;;;;;;5046410;28;21034;-76
2021/04/11 03:51:54;;;;;;;4.20;1.98;;;7.40;99.90;;;;;;5026636;28;20106;-76
2021/04/11 03:54:23;;;;;;;9.73;2.55;;;7.30;99.90;;;;;;5037933;28;20116;-74
2021/04/11 03:57:07;;;;;;;2.38;1.60;;;7.40;99.90;;;;;;5030577;28;20070;-74
2021/04/11 03:59:40;;;;;;;2.13;1.58;;;6.90;99.90;;;;;;5033652;28;20082;-75
2021/04/11 04:02:07;;;;;;;4.15;1.85;;;6.80;99.90;;;;;;5034743;28;20152;-75
2021/04/11 04:04:34;;;;;;;2.53;1.98;;;6.60;99.90;;;;;;5044076;28;20074;-73
2021/04/11 04:07:12;;;;;;;2.33;2.00;;;6.70;99.90;;;;;;5048151;28;20082;-73
2021/04/11 04:09:38;;;;;;;5.53;2.05;;;6.60;99.90;;;;;;5042466;28;20153;-73
2021/04/11 04:12:20;;;;;;;2.58;2.20;;;6.70;99.90;;;;;;5036591;28;20176;-74
2021/04/11 04:15:28;;;;;;;4.32;2.35;;;6.90;99.90;;;;;;5049338;28;20111;-75
2021/04/11 04:18:31;;;;;;;5.20;1.95;;;6.90;99.90;;;;;;5036085;28;20074;-77
2021/04/11 04:21:27;;;;;;;3.88;2.13;;;6.90;99.90;;;;;;5033826;28;20138;-75
2021/04/11 04:24:16;;;;;;;2.00;1.60;;;6.90;99.90;;;;;;5038021;28;20089;-75
2021/04/11 04:26:50;;;;;;;3.28;1.83;;;6.70;99.90;;;;;;5031784;28;20196;-74
2021/04/11 04:29:31;;;;;;;2.60;1.95;;;6.60;99.90;;;;;;5041012;28;20078;-74
2021/04/11 04:32:26;;;;;;;2.75;1.63;;;6.60;99.90;;;;;;5048982;28;20104;-73
2021/04/11 04:35:29;;;;;;;1.90;1.70;;;6.40;99.90;;;;;;5034480;28;20107;-74
2021/04/11 04:38:36;;;;;;;3.03;1.73;;;6.20;99.90;;;;;;5036303;28;20563;-74
2021/04/11 04:41:10;;;;;;;2.30;2.03;;;6.10;99.90;;;;;;5037794;28;20548;-74
2021/04/11 04:43:42;;;;;;;3.17;1.90;;;6.20;99.90;;;;;;5043102;28;20077;-74
2021/04/11 04:46:11;;;;;;;2.72;1.83;;;6.40;99.90;;;;;;5028354;28;20504;-74
2021/04/11 04:48:58;;;;;;;2.55;1.70;;;6.30;99.90;;;;;;5035157;28;20073;-73
2021/04/11 04:51:27;;;;;;;3.05;2.00;;;6.30;99.90;;;;;;5032200;28;20169;-75
2021/04/11 04:54:14;;;;;;;3.08;1.65;;;6.20;99.90;;;;;;5045756;28;20085;-74
2021/04/11 04:56:51;;;;;;;2.85;1.83;;;6.10;99.90;;;;;;5038442;28;20152;-75
2021/04/11 04:59:28;;;;;;;3.33;2.30;;;6.40;99.90;;;;;;5042443;28;20135;-73
2021/04/11 05:02:02;;;;;;;2.72;2.00;;;6.60;99.90;;;;;;5045522;28;20665;-74
2021/04/11 05:04:30;;;;;;;4.78;1.90;;;6.40;99.90;;;;;;5052029;28;20523;-74
2021/04/11 05:07:06;;;;;;;2.78;1.80;;;6.30;99.90;;;;;;5031716;28;20096;-74
2021/04/11 05:09:48;;;;;;;3.33;1.70;;;6.50;99.90;;;;;;5038034;28;20081;-77
2021/04/11 05:12:36;;;;;;;2.17;1.65;;;6.70;99.90;;;;;;5037718;28;20089;-75
2021/04/11 05:15:07;;;;;;;2.28;1.98;;;6.60;99.90;;;;;;5038696;28;20173;-73
2021/04/11 05:17:36;;;;;;;3.70;1.75;;;6.30;99.90;;;;;;5047987;28;20070;-73
2021/04/11 05:20:25;;;;;;;2.13;1.92;;;6.60;99.90;;;;;;5040198;28;20082;-74
2021/04/11 05:23:14;;;;;;;2.63;2.15;;;6.50;99.90;;;;;;5032981;28;20145;-73
2021/04/11 05:26:11;;;;;;;3.53;2.45;;;6.30;99.90;;;;;;5033504;28;20116;-75
2021/04/11 05:28:55;;;;;;;2.47;1.90;;;6.30;99.90;;;;;;5042254;28;20077;-74
2021/04/11 05:31:35;;;;;;;5.35;2.03;;;6.50;99.90;;;;;;5040260;28;20604;-74
2021/04/11 05:34:03;;;;;;;5.15;1.98;;;6.70;99.90;;;;;;5039034;28;20143;-75
2021/04/11 05:36:51;;;;;;;2.40;2.13;;;6.80;99.90;;;;;;5030496;28;20078;-74
2021/04/11 05:39:45;;;;;;;2.58;1.90;;;7.10;99.90;;;;;;5034492;28;20096;-74
2021/04/11 05:42:20;;;;;;;2.83;2.17;;;6.90;99.90;;;;;;5043500;28;20605;-74
2021/04/11 05:44:49;;;;;;;2.78;1.95;;;7.00;99.90;;;;;;5031020;28;20115;-73
2021/04/11 05:47:19;;;;;;;3.25;1.85;;;6.80;99.90;;;;;;5044536;28;20074;-73
2021/04/11 05:49:57;;;;;;;2.50;1.83;;;6.80;99.90;;;;;;5041019;28;20089;-74
2021/04/11 05:52:36;;;;;;;2.58;1.73;;;7.10;99.90;;;;;;5014028;28;20094;-74
2021/04/11 05:55:07;;;;;;;2.67;1.90;;;7.00;99.90;;;;;;5033132;28;20089;-74
2021/04/11 05:57:46;;;;;;;3.08;1.75;;;7.10;99.90;;;;;;5034344;28;20082;-74
2021/04/11 06:00:12;;;;;;;2.17;1.90;;;7.10;99.90;;;;;;5038665;28;20080;-74
2021/04/11 06:02:45;;;;;;;3.85;1.77;;;7.30;99.90;;;;;;5039270;28;20152;-74
2021/04/11 06:05:13;;;;;;;3.05;2.00;;;7.40;99.90;;;;;;5032794;28;20089;-74
2021/04/11 06:07:54;;;;;;;2.97;2.08;;;7.40;99.90;;;;;;5031266;28;20495;-75
2021/04/11 06:10:29;;;;;;;3.30;1.83;;;7.40;99.90;;;;;;5033619;28;20078;-74
2021/04/11 06:13:08;;;;;;;3.78;2.45;;;7.50;99.90;;;;;;5044609;28;20100;-75
2021/04/11 06:15:49;;;;;;;4.00;2.25;;;7.70;99.90;;;;;;5047337;28;20096;-74
2021/04/11 06:18:15;;;;;;;4.38;2.30;;;7.90;99.90;;;;;;5044870;28;20128;-74
2021/04/11 06:20:44;;;;;;;4.38;2.58;;;8.10;99.90;;;;;;5039672;28;20089;-74
2021/04/11 06:23:34;;;;;;;7.68;2.45;;;8.30;99.90;;;;;;5050152;28;20488;-75
2021/04/11 06:26:16;;;;;;;5.35;2.17;;;8.40;99.90;;;;;;5048319;28;20085;-74
2021/04/11 06:28:48;;;;;;;6.97;2.78;;;8.60;99.90;;;;;;5039630;28;20092;-74
2021/04/11 06:31:22;;;;;;;3.17;2.17;;;8.60;99.90;;;;;;5045977;28;20078;-74
2021/04/11 06:33:57;;;;;;;5.80;2.60;;;8.80;99.90;;;;;;5029994;28;20114;-75
2021/04/11 06:36:24;;;;;;;;;;;9.00;99.90;;;;;;5030219;28;20729;-73
2021/04/11 06:39:25;;;;;;;4.38;2.53;;;9.10;99.90;;;;;;5041260;28;20451;-75
2021/04/11 06:42:22;;;;;;;2.88;2.10;;;9.30;99.90;;;;;;5035527;28;20102;-76
2021/04/11 06:45:06;;;;;;;3.17;2.00;;;9.40;99.90;;;;;;5041582;28;20181;-75
2021/04/11 06:48:15;;;;;;;3.58;2.28;;;9.50;99.90;;;;;;5030041;28;20084;-75
2021/04/11 06:51:06;;;;;;;2.35;1.73;;;10.00;99.90;;;;;;5030396;28;20147;-75
2021/04/11 06:53:40;;;;;;;3.50;2.15;;;10.50;99.90;;;;;;5029996;28;20081;-74
2021/04/11 06:56:22;;;;;;;5.60;2.17;;;10.60;99.90;;;;;;5036263;28;20072;-76
2021/04/11 06:59:13;;;;;;;3.42;2.45;;;10.80;99.90;;;;;;5036149;28;20066;-74
2021/04/11 07:01:44;;;;;;;3.35;2.10;;;10.90;99.90;;;;;;5046906;28;20133;-75
2021/04/11 07:04:21;;;;;;;1.80;1.70;;;11.10;99.90;;;;;;5036466;28;20117;-74
2021/04/11 07:07:04;;;;;;;4.03;2.25;;;11.20;99.90;;;;;;5043749;28;20081;-73
2021/04/11 07:09:49;;;;;;;3.03;1.70;;;11.30;99.90;;;;;;5038718;28;20550;-74
2021/04/11 07:12:33;;;;;;;2.38;1.60;;;11.20;99.90;;;;;;5040724;28;20181;-74
2021/04/11 07:15:14;;;;;;;2.08;1.75;;;11.30;99.90;;;;;;5045751;28;20089;-73
2021/04/11 07:17:39;;;;;;;5.13;2.45;;;11.40;99.90;;;;;;5035260;28;20091;-74
2021/04/11 07:20:23;;;;;;;3.10;1.55;;;11.80;99.90;;;;;;5019494;28;20536;-74
2021/04/11 07:23:19;;;;;;;2.13;1.70;;;11.70;99.90;;;;;;5036259;28;20498;-74
2021/04/11 07:26:11;;;;;;;2.83;1.60;;;12.20;99.90;;;;;;5040314;28;20085;-75
2021/04/11 07:28:50;;;;;;;3.58;1.60;;;12.40;99.90;;;;;;5048746;28;20081;-74
2021/04/11 07:31:21;;;;;;;2.17;1.25;;;12.70;98.60;;;;;;5036353;28;20091;-74
2021/04/11 07:34:20;;;;;;;3.13;1.42;;;12.80;96.80;;;;;;5042813;28;20151;-74
2021/04/11 07:37:03;;;;;;;1.58;1.13;;;12.90;98.80;;;;;;5033567;28;20078;-76
2021/04/11 07:39:50;;;;;;;2.55;1.08;;;13.10;97.20;;;;;;5029828;28;20094;-75
2021/04/11 07:42:44;;;;;;;3.97;1.50;;;13.30;98.20;;;;;;5032553;28;20172;-76
2021/04/11 07:45:28;;;;;;;1.85;1.20;;;13.30;97.20;;;;;;5010843;28;20601;-80
2021/04/11 07:48:01;;;;;;;1.35;1.13;;;13.50;97.50;;;;;;5024582;28;20132;-77
2021/04/11 07:50:54;;;;;;;1.92;1.13;;;13.70;94.80;;;;;;5036739;28;20558;-79
2021/04/11 07:53:38;;;;;;;2.17;1.13;;;14.10;95.00;;;;;;5022803;28;20084;-74
2021/04/11 07:56:09;;;;;;;1.83;1.00;;;14.20;91.90;;;;;;5030792;28;20073;-75
2021/04/11 07:58:46;;;;;;;1.80;0.88;;;14.20;90.60;;;;;;5028858;28;20081;-76
2021/04/11 08:01:43;;;;;;;1.95;0.85;;;14.00;91.20;;;;;;5028996;28;20089;-76
2021/04/11 08:04:29;;;;;;;0.77;0.75;;;14.40;90.70;;;;;;5028666;28;20149;-77
2021/04/11 08:07:20;;;;;;;1.95;0.82;;;14.30;89.60;;;;;;5029166;28;20089;-76
2021/04/11 08:10:11;;;;;;;3.20;1.10;;;14.30;90.10;;;;;;5029135;28;20192;-76
2021/04/11 08:13:07;;;;;;;1.40;0.82;;;14.50;91.10;;;;;;5027571;28;20089;-77
2021/04/11 08:15:50;;;;;;;3.05;0.95;;;14.90;88.30;;;;;;5030493;28;20173;-77
2021/04/11 08:18:25;;;;;;;2.38;0.98;;;14.90;89.30;;;;;;5009640;28;20074;-76
2021/04/11 08:21:17;;;;;;;1.75;0.80;;;15.30;88.70;;;;;;5033705;28;20089;-77
2021/04/11 08:23:55;;;;;;;1.42;0.63;;;15.20;83.60;;;;;;5024181;28;20179;-77
2021/04/11 08:26:55;;;;;;;1.77;0.82;;;15.70;80.70;;;;;;5034404;28;20100;-75
2021/04/11 08:29:41;;;;;;;1.27;0.93;;;16.00;80.10;;;;;;5024295;28;20085;-76
2021/04/11 08:32:27;;;;;;;3.65;0.65;;;16.20;81.30;;;;;;5030132;28;20102;-77
2021/04/11 08:35:25;;;;;;;1.63;0.50;;;16.30;77.80;;;;;;5031435;28;20120;-77
2021/04/11 08:38:30;;;;;;;1.33;0.55;;;16.10;71.90;;;;;;5027075;28;20081;-77
2021/04/11 08:41:21;;;;;;;1.13;0.52;;;15.70;74.90;;;;;;5045288;28;20069;-77
2021/04/11 08:44:12;;;;;;;2.78;0.77;;;15.90;76.70;;;;;;5034689;28;20082;-78
2021/04/11 08:46:56;;;;;;;1.30;0.57;;;15.90;76.90;;;;;;5039910;28;20078;-80
2021/04/11 08:49:44;;;;;;;1.23;0.60;;;16.00;81.50;;;;;;5032682;28;20540;-78
2021/04/11 08:52:35;;;;;;;2.05;0.63;;;16.40;76.60;;;;;;5028348;28;20555;-78
2021/04/11 08:55:15;;;;;;;1.48;0.60;;;16.60;83.30;;;;;;5033727;28;20097;-78
2021/04/11 08:58:00;;;;;;;1.13;0.55;;;16.50;79.60;;;;;;5030397;28;20081;-76
2021/04/11 09:00:31;;;;;;;;;;;16.70;76.60;;;;;;5034348;28;20093;-76
2021/04/11 09:03:26;;;;;;;1.15;0.60;;;16.60;78.80;;;;;;5037521;28;19977;-75
2021/04/11 09:06:12;;;;;;;1.95;1.10;;;16.70;81.90;;;;;;5032972;28;20180;-76
2021/04/11 09:09:22;;;;;;;2.67;1.00;;;16.50;80.50;;;;;;5032373;28;20705;-75
2021/04/11 09:12:02;;;;;;;2.15;0.70;;;16.30;83.70;;;;;;5038699;28;20097;-80
2021/04/11 09:14:52;;;;;;;0.90;0.68;;;16.70;79.40;;;;;;5043384;28;20112;-78
2021/04/11 09:17:45;;;;;;;2.33;0.73;;;16.40;77.10;;;;;;5034684;28;20081;-78
2021/04/11 09:20:30;;;;;;;3.40;0.50;;;16.90;76.10;;;;;;5027734;28;20078;-79
2021/04/11 09:23:20;;;;;;;1.13;0.60;;;16.90;75.00;;;;;;5052516;28;20097;-78
2021/04/11 09:25:59;;;;;;;0.82;0.52;;;17.20;80.30;;;;;;5040590;28;20080;-80
2021/04/11 09:29:07;;;;;;;1.23;0.73;;;17.20;78.10;;;;;;5031189;28;20130;-78
2021/04/11 09:31:58;;;;;;;2.83;0.70;;;17.10;75.00;;;;;;5028856;28;20102;-78
2021/04/11 09:34:35;;;;;;;0.90;0.50;;;17.00;73.90;;;;;;5048865;28;20086;-76
2021/04/11 09:37:28;;;;;;;0.88;0.55;;;17.00;76.20;;;;;;5050384;28;20069;-77
2021/04/11 09:40:23;;;;;;;1.42;0.65;;;17.20;76.60;;;;;;5045497;28;20617;-78
2021/04/11 09:43:14;;;;;;;4.03;0.88;;;17.30;71.60;;;;;;5044105;28;20104;-79
2021/04/11 09:46:10;;;;;;;2.95;0.73;;;17.30;65.70;;;;;;5043244;28;20086;-80
2021/04/11 09:49:12;;;;;;;0.98;0.38;;;17.40;64.60;;;;;;5047139;28;20624;-79
2021/04/11 09:51:44;;;;;;;0.95;0.50;;;17.60;66.90;;;;;;5019416;28;20112;-78
2021/04/11 09:54:38;;;;;;;0.82;0.52;;;17.70;64.60;;;;;;5034474;28;20120;-80
2021/04/11 09:57:27;;;;;;;3.20;1.58;;;17.60;65.50;;;;;;5022276;28;20083;-79
2021/04/11 10:00:11;;;;;;;1.40;0.70;;;17.60;63.60;;;;;;5044480;28;20072;-79
2021/04/11 10:03:19;;;;;;;1.98;0.70;;;17.70;62.80;;;;;;5040544;28;20468;-81
2021/04/11 10:06:06;;;;;;;1.38;0.60;;;17.50;61.20;;;;;;5015992;28;20231;-77
2021/04/11 10:09:16;;;;;;;0.93;0.70;;;17.80;62.70;;;;;;5028977;28;20077;-78
2021/04/11 10:12:12;;;;;;;0.77;0.60;;;18.00;67.80;;;;;;5020384;28;20179;-78
2021/04/11 10:14:53;;;;;;;0.73;0.50;;;18.10;66.20;;;;;;5038797;28;20116;-77
2021/04/11 10:17:39;;;;;;;2.13;0.70;;;17.90;60.50;;;;;;5049353;28;20096;-76
2021/04/11 10:20:22;;;;;;;1.50;0.70;;;17.90;62.80;;;;;;5038234;28;20450;-76
2021/04/11 10:22:52;;;;;;;1.45;0.70;;;18.00;67.60;;;;;;5046868;28;20098;-76
2021/04/11 10:25:40;;;;;;;3.97;0.77;;;18.00;62.10;;;;;;5047141;28;20088;-77
2021/04/11 10:28:31;;;;;;;1.00;0.63;;;17.90;64.00;;;;;;5041785;28;20555;-77
2021/04/11 10:31:12;;;;;;;1.77;0.50;;;18.40;69.10;;;;;;5034664;28;20562;-77
2021/04/11 10:34:03;;;;;;;0.50;0.30;;;18.10;62.80;;;;;;5041551;28;20129;-78
2021/04/11 10:36:39;;;;;;;3.72;0.60;;;18.20;64.90;;;;;;5037378;28;20089;-77
2021/04/11 10:39:29;;;;;;;1.75;0.50;;;18.10;64.90;;;;;;5031906;28;20073;-77
2021/04/11 10:42:24;;;;;;;1.70;0.65;;;17.90;64.50;;;;;;5044780;28;20467;-79
2021/04/11 10:44:58;;;;;;;0.50;0.40;;;18.00;64.90;;;;;;5038657;28;20451;-77
2021/04/11 10:48:12;;;;;;;0.98;0.50;;;18.00;68.10;;;;;;5046064;28;20077;-78
2021/04/11 10:50:40;;;;;;;2.05;0.68;;;18.30;65.70;;;;;;5037370;28;20085;-78
2021/04/11 10:53:24;;;;;;;0.57;0.43;;;18.30;72.70;;;;;;5023840;28;20078;-78
2021/04/11 10:56:01;;;;;;;1.85;0.80;;;18.40;72.40;;;;;;5035659;28;20173;-78
2021/04/11 10:58:58;;;;;;;0.82;0.52;;;18.60;72.90;;;;;;5031350;28;20593;-76
2021/04/11 11:01:35;;;;;;;0.90;0.55;;;18.60;69.50;;;;;;5016688;28;20104;-76
2021/04/11 11:04:22;;;;;;;2.95;1.33;;;18.40;67.30;;;;;;5038292;28;20074;-77
2021/04/11 11:07:09;;;;;;;1.27;0.90;;;18.60;72.60;;;;;;5031718;28;20074;-77
2021/04/11 11:09:57;;;;;;;0.93;0.52;;;18.60;68.10;;;;;;5017930;28;20081;-77
2021/04/11 11:12:45;;;;;;;1.17;0.82;;;18.60;73.10;;;;;;5031896;28;20094;-77
2021/04/11 11:15:31;;;;;;;3.53;0.70;;;18.70;78.30;;;;;;5024845;28;20239;-77
2021/04/11 11:18:27;;;;;;;3.63;0.80;;;18.60;66.60;;;;;;5033598;28;20089;-79
2021/04/11 11:21:08;;;;;;;1.13;0.50;;;18.30;68.30;;;;;;5032512;28;20143;-77
2021/04/11 11:24:06;;;;;;;1.02;0.60;;;18.10;70.90;;;;;;5035938;28;20069;-76
2021/04/11 11:26:50;;;;;;;0.57;0.57;;;18.40;71.80;;;;;;5035520;28;20080;-78
2021/04/11 11:29:50;;;;;;;0.70;0.57;;;18.30;69.00;;;;;;5032744;28;20066;-77
2021/04/11 11:32:29;;;;;;;46.00;27.30;;;18.30;69.20;;;;;;5040040;28;20113;-78
2021/04/11 11:35:08;;;;;;;81.53;50.25;;;18.40;74.10;;;;;;5036495;28;20089;-78
2021/04/11 11:37:51;;;;;;;76.90;45.67;;;18.50;73.90;;;;;;5035975;28;20708;-78
2021/04/11 11:40:48;;;;;;;2.23;1.70;;;18.60;73.70;;;;;;5015871;28;20160;-78
2021/04/11 11:43:19;;;;;;;8.32;4.93;;;18.40;78.20;;;;;;5044389;28;20074;-77
2021/04/11 11:46:06;;;;;;;1.58;1.00;;;18.40;77.10;;;;;;5030887;28;20665;-77
2021/04/11 11:48:59;;;;;;;2.92;1.05;;;18.40;74.20;;;;;;5033251;28;20077;-77
2021/04/11 11:51:31;;;;;;;5.43;2.95;;;18.30;72.70;;;;;;5049035;28;20164;-77
2021/04/11 11:54:17;;;;;;;1.67;0.73;;;18.20;71.90;;;;;;5044935;28;20151;-77
2021/04/11 11:56:56;;;;;;;2.40;0.55;;;18.10;72.10;;;;;;5032025;28;20073;-77
2021/04/11 11:59:38;;;;;;;0.82;0.50;;;18.10;70.40;;;;;;5031981;28;20700;-77
2021/04/11 12:02:13;;;;;;;0.70;0.65;;;18.00;71.00;;;;;;5042228;28;20085;-76
2021/04/11 12:05:05;;;;;;;0.70;0.50;;;17.90;71.20;;;;;;5035085;28;20102;-76
2021/04/11 12:07:47;;;;;;;1.55;0.98;;;18.00;72.60;;;;;;5034731;28;20082;-77
2021/04/11 12:10:19;;;;;;;1.42;0.52;;;18.10;72.80;;;;;;5034450;28;20073;-78
2021/04/11 12:13:10;;;;;;;1.35;0.63;;;18.10;77.40;;;;;;5043969;28;20098;-77
2021/04/11 12:16:11;;;;;;;0.88;0.50;;;18.20;75.10;;;;;;5050638;28;20097;-79
2021/04/11 12:18:54;;;;;;;1.45;0.50;;;18.40;77.50;;;;;;5026681;28;20094;-81
2021/04/11 12:21:39;;;;;;;0.70;0.50;;;18.50;77.70;;;;;;5015606;28;20102;-77
2021/04/11 12:24:23;;;;;;;1.23;0.77;;;18.40;73.90;;;;;;5039311;28;20596;-78
2021/04/11 12:27:00;;;;;;;1.70;0.77;;;18.20;74.90;;;;;;5041598;28;20144;-81
2021/04/11 12:29:33;;;;;;;0.85;0.50;;;18.60;79.60;;;;;;5019531;28;20160;-77
2021/04/11 12:31:58;;;;;;;1.02;0.50;;;18.60;78.00;;;;;;5030489;28;20101;-79
2021/04/11 12:35:03;;;;;;;1.90;0.60;;;18.50;76.00;;;;;;5041660;28;20089;-77
2021/04/11 12:37:33;;;;;;;1.50;0.60;;;18.40;77.90;;;;;;5044100;28;20085;-81
2021/04/11 12:40:34;;;;;;;1.92;0.50;;;18.40;79.60;;;;;;5025378;28;20157;-78
2021/04/11 12:43:22;;;;;;;1.17;0.40;;;18.40;83.40;;;;;;5034722;28;20094;-77
2021/04/11 12:46:11;;;;;;;1.20;0.45;;;18.50;76.30;;;;;;5033268;28;20069;-78
2021/04/11 12:49:06;;;;;;;0.80;0.60;;;18.40;76.30;;;;;;5034260;28;20085;-78
2021/04/11 12:51:45;;;;;;;0.65;0.40;;;18.30;71.10;;;;;;5043022;28;20095;-76
2021/04/11 12:54:32;;;;;;;1.45;0.22;;;18.30;69.90;;;;;;5052514;28;20108;-78
2021/04/11 12:57:07;;;;;;;0.98;0.22;;;18.30;68.50;;;;;;5034655;28;20084;-76
2021/04/11 12:59:50;;;;;;;0.63;0.35;;;18.20;67.60;;;;;;5049181;28;20543;-76
2021/04/11 13:02:21;;;;;;;1.52;0.50;;;18.20;68.70;;;;;;5050020;28;20172;-78
2021/04/11 13:04:51;;;;;;;0.35;0.30;;;18.30;69.90;;;;;;5033141;28;20074;-76
2021/04/11 13:07:37;;;;;;;0.38;0.20;;;18.30;73.70;;;;;;5036673;28;20073;-77
2021/04/11 13:10:17;;;;;;;0.52;0.30;;;18.30;73.60;;;;;;5025023;28;20077;-77
2021/04/11 13:12:57;;;;;;;0.40;0.20;;;18.40;69.90;;;;;;5042233;28;20150;-77
2021/04/11 13:15:34;;;;;;;0.60;0.38;;;18.30;74.20;;;;;;5022392;28;20089;-76
2021/04/11 13:18:16;;;;;;;0.90;0.40;;;18.20;71.50;;;;;;5039292;28;20074;-75
2021/04/11 13:20:43;;;;;;;0.52;0.20;;;18.20;69.70;;;;;;5031194;28;20081;-74
2021/04/11 13:23:18;;;;;;;0.80;0.32;;;18.20;70.10;;;;;;5031293;28;20070;-74
2021/04/11 13:26:00;;;;;;;1.60;0.20;;;18.20;69.80;;;;;;5049313;28;20077;-73
2021/04/11 13:28:34;;;;;;;0.70;0.25;;;18.10;76.40;;;;;;5034953;28;20088;-76
2021/04/11 13:31:09;;;;;;;0.40;0.20;;;18.00;77.80;;;;;;5043228;28;20097;-74
2021/04/11 13:33:46;;;;;;;2.42;0.40;;;17.90;77.00;;;;;;5047218;28;20547;-77
2021/04/11 13:36:29;;;;;;;0.38;0.20;;;17.90;74.30;;;;;;5022616;28;20123;-78
2021/04/11 13:39:03;;;;;;;0.38;0.17;;;17.80;74.90;;;;;;5025757;28;20112;-78
2021/04/11 13:42:06;;;;;;;1.48;0.60;;;17.80;73.10;;;;;;5050278;28;20139;-78
2021/04/11 13:45:06;;;;;;;0.30;0.15;;;17.80;72.40;;;;;;5035669;28;20089;-78
2021/04/11 13:47:50;;;;;;;0.57;0.30;;;17.90;69.70;;;;;;5037200;28;20078;-78
2021/04/11 13:50:34;;;;;;;1.23;0.30;;;17.80;71.70;;;;;;5038617;28;20074;-78
2021/04/11 13:53:24;;;;;;;0.82;0.47;;;17.70;75.70;;;;;;5035194;28;20135;-78
2021/04/11 13:55:55;;;;;;;0.52;0.30;;;17.60;77.60;;;;;;5030837;28;20094;-78
2021/04/11 13:58:34;;;;;;;1.15;0.70;;;17.60;83.20;;;;;;5043031;28;20592;-78